createdAt,value
2022-10-22T00:02:35.502Z,15.32
2022-10-22T00:07:59.375Z,15.34
2022-10-22T00:13:21.784Z,15.35
2022-10-22T00:18:43.931Z,15.38
2022-10-22T00:24:07.391Z,15.42
2022-10-22T00:29:28.866Z,15.45
2022-10-22T00:34:50.979Z,15.46
2022-10-22T00:40:15.173Z,15.48
2022-10-22T00:45:37.939Z,15.46
2022-10-22T00:51:02.965Z,15.47
2022-10-22T00:56:26.135Z,15.51
2022-10-22T01:01:49.208Z,15.52
2022-10-22T01:07:19.396Z,15.58
2022-10-22T01:12:53.183Z,15.59
2022-10-22T01:18:23.826Z,15.59
2022-10-22T01:29:15.331Z,15.65
2022-10-22T01:34:43.000Z,15.67
2022-10-22T01:40:06.829Z,15.70
2022-10-22T01:45:31.524Z,15.71
2022-10-22T01:51:09.128Z,15.74
2022-10-22T01:56:52.175Z,15.75
2022-10-22T02:02:27.345Z,15.73
2022-10-22T02:07:52.563Z,15.67
2022-10-22T02:13:19.489Z,15.68
2022-10-22T02:18:46.206Z,15.65
2022-10-22T02:24:09.455Z,15.63
2022-10-22T02:29:37.090Z,15.63
2022-10-22T02:35:02.464Z,15.61
2022-10-22T02:40:24.896Z,15.55
2022-10-22T02:45:50.353Z,15.53
2022-10-22T02:51:13.039Z,15.50
2022-10-22T02:56:34.946Z,15.48
2022-10-22T03:01:56.653Z,15.48
2022-10-22T03:07:19.491Z,15.49
2022-10-22T03:12:41.198Z,15.48
2022-10-22T03:18:02.973Z,15.47
2022-10-22T03:23:26.969Z,15.44
2022-10-22T03:28:49.205Z,15.44
2022-10-22T03:34:12.103Z,15.44
2022-10-22T03:39:36.603Z,15.40
2022-10-22T03:44:58.013Z,15.39
2022-10-22T03:50:19.651Z,15.37
2022-10-22T03:55:43.466Z,15.36
2022-10-22T04:01:08.689Z,15.39
2022-10-22T04:06:31.314Z,15.40
2022-10-22T04:11:54.303Z,15.41
2022-10-22T04:17:16.235Z,15.42
2022-10-22T04:22:38.645Z,15.41
2022-10-22T04:28:02.814Z,15.41
2022-10-22T04:33:24.773Z,15.38
2022-10-22T04:38:48.170Z,15.37
2022-10-22T04:44:13.674Z,15.36
2022-10-22T04:49:37.616Z,15.35
2022-10-22T04:54:59.242Z,15.35
2022-10-22T05:00:22.366Z,15.37
2022-10-22T05:05:43.845Z,15.35
2022-10-22T05:11:12.733Z,15.37
2022-10-22T05:16:36.116Z,15.37
2022-10-22T05:21:59.750Z,15.38
2022-10-22T05:27:21.342Z,15.35
2022-10-22T05:32:44.790Z,15.35
2022-10-22T05:38:06.457Z,15.37
2022-10-22T05:43:28.426Z,15.39
2022-10-22T05:48:52.106Z,15.44
2022-10-22T05:54:19.610Z,15.46
2022-10-22T05:59:41.175Z,15.46
2022-10-22T06:05:04.386Z,15.47
2022-10-22T06:10:26.193Z,15.48
2022-10-22T06:15:47.942Z,15.52
2022-10-22T06:21:12.976Z,15.55
2022-10-22T06:26:34.979Z,15.58
2022-10-22T06:31:56.661Z,15.60
2022-10-22T06:37:19.522Z,15.63
2022-10-22T06:42:41.273Z,15.66
2022-10-22T06:48:03.322Z,15.71
2022-10-22T06:53:26.349Z,15.73
2022-10-22T06:58:48.912Z,15.76
2022-10-22T07:04:11.853Z,15.85
2022-10-22T07:09:34.549Z,15.92
2022-10-22T07:14:56.290Z,16.04
2022-10-22T07:20:18.963Z,16.14
2022-10-22T07:25:41.979Z,16.29
2022-10-22T07:31:03.778Z,16.41
2022-10-22T07:36:25.223Z,16.55
2022-10-22T07:41:47.891Z,16.60
2022-10-22T07:47:09.575Z,16.69
2022-10-22T07:52:31.024Z,16.76
2022-10-22T07:57:54.020Z,16.80
2022-10-22T08:03:17.081Z,16.87
2022-10-22T08:08:38.667Z,16.89
2022-10-22T08:14:01.672Z,16.88
2022-10-22T08:19:23.057Z,16.90
2022-10-22T08:24:44.354Z,16.90
2022-10-22T08:30:09.470Z,16.90
2022-10-22T08:35:30.919Z,16.88
2022-10-22T08:40:55.482Z,16.90
2022-10-22T08:46:42.427Z,16.95
2022-10-22T08:52:04.439Z,16.93
2022-10-22T08:57:39.915Z,16.92
2022-10-22T09:03:19.438Z,16.97
2022-10-22T09:08:43.867Z,17.01
2022-10-22T09:14:06.179Z,17.05
2022-10-22T09:19:40.063Z,17.20
2022-10-22T09:25:18.510Z,17.32
2022-10-22T09:30:41.744Z,17.45
2022-10-22T09:36:07.737Z,17.65
2022-10-22T09:41:30.939Z,17.98
2022-10-22T09:46:52.597Z,18.23
2022-10-22T09:52:41.141Z,18.40
2022-10-22T09:58:02.857Z,18.52
2022-10-22T10:03:27.875Z,18.67
2022-10-22T10:08:51.659Z,18.83
2022-10-22T10:14:20.290Z,18.95
2022-10-22T10:19:52.162Z,19.04
2022-10-22T10:25:27.349Z,19.13
2022-10-22T10:30:55.698Z,19.24
2022-10-22T10:36:24.943Z,19.32
2022-10-22T10:41:56.683Z,19.41
2022-10-22T10:47:34.707Z,19.53
2022-10-22T10:53:04.990Z,19.67
2022-10-22T10:58:38.133Z,19.79
2022-10-22T11:04:25.826Z,19.93
2022-10-22T11:09:52.360Z,20.04
2022-10-22T11:15:26.974Z,20.17
2022-10-22T11:20:58.423Z,20.28
2022-10-22T11:26:30.676Z,20.37
2022-10-22T11:31:55.760Z,20.48
2022-10-22T11:37:18.628Z,20.55
2022-10-22T11:42:45.256Z,20.58
2022-10-22T11:48:18.977Z,20.65
2022-10-22T11:53:40.591Z,20.67
2022-10-22T11:59:03.484Z,20.65
2022-10-22T12:04:42.278Z,20.70
2022-10-22T12:10:07.670Z,20.66
2022-10-22T12:15:30.281Z,20.57
2022-10-22T12:20:54.715Z,20.58
2022-10-22T12:26:27.217Z,20.60
2022-10-22T12:31:48.781Z,20.52
2022-10-22T12:37:14.800Z,20.61
2022-10-22T12:42:38.213Z,20.61
2022-10-22T12:48:01.811Z,20.60
2022-10-22T12:53:28.757Z,20.61
2022-10-22T12:58:54.824Z,20.59
2022-10-22T13:04:23.779Z,20.60
2022-10-22T13:09:47.936Z,20.58
2022-10-22T13:15:34.609Z,20.55
2022-10-22T13:20:58.943Z,20.50
2022-10-22T13:26:22.039Z,20.53
2022-10-22T13:31:48.015Z,20.45
2022-10-22T13:37:10.611Z,20.42
2022-10-22T13:42:33.896Z,20.30
2022-10-22T13:47:57.093Z,20.24
2022-10-22T13:53:21.985Z,20.22
2022-10-22T13:58:46.501Z,20.14
2022-10-22T14:04:12.029Z,20.05
2022-10-22T14:09:33.671Z,19.94
2022-10-22T14:20:22.381Z,19.81
2022-10-22T14:25:44.168Z,19.78
2022-10-22T14:31:07.463Z,19.75
2022-10-22T14:36:29.660Z,19.73
2022-10-22T14:41:51.307Z,19.69
2022-10-22T14:47:16.628Z,19.66
2022-10-22T14:52:39.084Z,19.64
2022-10-22T14:58:03.782Z,19.59
2022-10-22T15:03:49.010Z,19.52
2022-10-22T15:09:22.474Z,19.44
2022-10-22T15:20:59.017Z,19.21
2022-10-22T15:26:22.798Z,19.08
2022-10-22T15:32:07.355Z,18.97
2022-10-22T15:37:41.258Z,18.83
2022-10-22T15:43:10.212Z,18.71
2022-10-22T15:48:35.724Z,18.60
2022-10-22T15:54:11.092Z,18.49
2022-10-22T15:59:35.817Z,18.37
2022-10-22T16:05:32.193Z,18.25
2022-10-22T16:11:01.264Z,18.15
2022-10-22T16:16:38.958Z,18.04
2022-10-22T16:22:13.282Z,17.92
2022-10-22T16:27:58.934Z,17.82
2022-10-22T16:33:39.134Z,17.68
2022-10-22T16:39:21.481Z,17.51
2022-10-22T16:45:07.072Z,17.35
2022-10-22T16:50:33.406Z,17.23
2022-10-22T16:56:00.899Z,17.15
2022-10-22T17:01:30.784Z,17.13
2022-10-22T17:06:57.273Z,17.07
2022-10-22T17:12:27.430Z,17.03
2022-10-22T17:17:58.059Z,16.98
2022-10-22T17:23:26.304Z,16.92
2022-10-22T17:28:53.327Z,16.82
2022-10-22T17:34:32.681Z,16.74
2022-10-22T17:39:59.173Z,16.67
2022-10-22T17:45:22.566Z,16.68
2022-10-22T17:50:50.572Z,16.65
2022-10-22T17:56:20.758Z,16.63
2022-10-22T18:01:50.491Z,16.62
2022-10-22T18:07:24.118Z,16.64
2022-10-22T18:12:48.183Z,16.63
2022-10-22T18:18:20.612Z,16.66
2022-10-22T18:23:51.656Z,16.65
2022-10-22T18:29:21.384Z,16.61
2022-10-22T18:34:45.977Z,16.55
2022-10-22T18:40:14.852Z,16.51
2022-10-22T18:45:47.893Z,16.48
2022-10-22T18:51:18.128Z,16.50
2022-10-22T18:56:43.681Z,16.49
2022-10-22T19:02:18.168Z,16.47
2022-10-22T19:07:43.933Z,16.39
2022-10-22T19:13:11.847Z,16.27
2022-10-22T19:18:44.893Z,16.18
2022-10-22T19:24:20.331Z,16.08
2022-10-22T19:29:56.605Z,16.01
2022-10-22T19:35:22.865Z,15.92
2022-10-22T19:40:45.516Z,15.83
2022-10-22T19:46:14.394Z,15.76
2022-10-22T19:51:42.381Z,15.67
2022-10-22T19:57:13.285Z,15.59
2022-10-22T20:02:45.200Z,15.52
2022-10-22T20:08:13.581Z,15.45
2022-10-22T20:19:11.500Z,15.32
2022-10-22T20:24:40.010Z,15.24
2022-10-22T20:30:07.895Z,15.15
2022-10-22T20:35:37.073Z,15.08
2022-10-22T20:41:07.452Z,15.03
2022-10-22T20:46:47.977Z,14.97
2022-10-22T20:52:36.331Z,14.89
2022-10-22T20:58:09.624Z,14.82
2022-10-22T21:03:48.147Z,14.75
2022-10-22T21:09:32.981Z,14.68
2022-10-22T21:15:14.645Z,14.59
2022-10-22T21:20:40.358Z,14.53
2022-10-22T21:26:09.190Z,14.47
2022-10-22T21:37:16.143Z,14.35
2022-10-22T21:42:49.780Z,14.29
2022-10-22T21:48:18.806Z,14.23
2022-10-22T21:53:48.024Z,14.18
2022-10-22T21:59:18.992Z,14.12
2022-10-22T22:04:42.185Z,14.09
2022-10-22T22:10:08.946Z,14.02
2022-10-22T22:15:47.892Z,14.02
2022-10-22T22:21:20.083Z,13.97
2022-10-22T22:26:49.355Z,14.03
2022-10-22T22:32:20.310Z,14.01
2022-10-22T22:38:03.252Z,13.99
2022-10-22T22:43:30.005Z,13.95
2022-10-22T22:48:57.336Z,13.91
2022-10-22T22:54:25.541Z,13.85
2022-10-22T22:59:52.813Z,13.83
2022-10-22T23:05:21.468Z,13.79
2022-10-22T23:10:48.952Z,13.78
2022-10-22T23:16:16.080Z,13.77
2022-10-22T23:21:48.563Z,13.73
2022-10-22T23:27:14.523Z,13.69
2022-10-22T23:32:43.105Z,13.65
2022-10-22T23:38:41.149Z,13.63
2022-10-22T23:44:05.414Z,13.60
2022-10-22T23:49:31.426Z,13.60
2022-10-22T23:55:06.570Z,13.60
